sensor_id;sensor_type;location;lat;lon;timestamp;P1;durP1;ratioP1;P2;durP2;ratioP2
51824;SDS011;37879;52.986;6.282;2023-03-14T00:01:08;18.05;;;4.20;;
51824;SDS011;37879;52.986;6.282;2023-03-14T00:03:39;16.67;;;5.05;;
51824;SDS011;37879;52.986;6.282;2023-03-14T00:06:05;17.23;;;5.65;;
51824;SDS011;37879;52.986;6.282;2023-03-14T00:08:31;25.30;;;6.18;;
51824;SDS011;37879;52.986;6.282;2023-03-14T00:10:57;20.75;;;4.93;;
51824;SDS011;37879;52.986;6.282;2023-03-14T00:13:23;20.85;;;6.13;;
51824;SDS011;37879;52.986;6.282;2023-03-14T00:15:49;18.05;;;5.32;;
51824;SDS011;37879;52.986;6.282;2023-03-14T00:18:15;19.60;;;4.80;;
51824;SDS011;37879;52.986;6.282;2023-03-14T00:20:41;19.38;;;4.38;;
51824;SDS011;37879;52.986;6.282;2023-03-14T00:23:06;13.90;;;4.30;;
51824;SDS011;37879;52.986;6.282;2023-03-14T00:25:32;19.42;;;4.18;;
51824;SDS011;37879;52.986;6.282;2023-03-14T00:27:57;15.02;;;4.05;;
51824;SDS011;37879;52.986;6.282;2023-03-14T00:30:23;16.73;;;4.28;;
51824;SDS011;37879;52.986;6.282;2023-03-14T00:32:49;23.25;;;5.63;;
51824;SDS011;37879;52.986;6.282;2023-03-14T00:35:15;24.02;;;5.18;;
51824;SDS011;37879;52.986;6.282;2023-03-14T00:37:40;11.50;;;3.72;;
51824;SDS011;37879;52.986;6.282;2023-03-14T00:40:06;17.27;;;4.80;;
51824;SDS011;37879;52.986;6.282;2023-03-14T00:42:33;12.40;;;3.75;;
51824;SDS011;37879;52.986;6.282;2023-03-14T00:44:58;19.67;;;4.45;;
51824;SDS011;37879;52.986;6.282;2023-03-14T00:47:24;12.00;;;4.32;;
51824;SDS011;37879;52.986;6.282;2023-03-14T00:49:50;16.25;;;4.63;;
51824;SDS011;37879;52.986;6.282;2023-03-14T00:52:15;14.85;;;4.13;;
51824;SDS011;37879;52.986;6.282;2023-03-14T00:54:41;11.48;;;4.15;;
51824;SDS011;37879;52.986;6.282;2023-03-14T00:57:07;17.70;;;3.70;;
51824;SDS011;37879;52.986;6.282;2023-03-14T00:59:32;21.67;;;3.88;;
51824;SDS011;37879;52.986;6.282;2023-03-14T01:01:58;17.88;;;5.13;;
51824;SDS011;37879;52.986;6.282;2023-03-14T01:04:23;16.52;;;4.50;;
51824;SDS011;37879;52.986;6.282;2023-03-14T01:06:49;18.65;;;4.38;;
51824;SDS011;37879;52.986;6.282;2023-03-14T01:09:14;16.67;;;3.85;;
51824;SDS011;37879;52.986;6.282;2023-03-14T01:11:42;12.20;;;3.63;;
51824;SDS011;37879;52.986;6.282;2023-03-14T01:14:11;17.85;;;4.15;;
51824;SDS011;37879;52.986;6.282;2023-03-14T01:16:37;17.27;;;4.45;;
51824;SDS011;37879;52.986;6.282;2023-03-14T01:19:03;13.30;;;3.80;;
51824;SDS011;37879;52.986;6.282;2023-03-14T01:21:30;20.48;;;5.78;;
51824;SDS011;37879;52.986;6.282;2023-03-14T01:23:58;19.20;;;4.05;;
51824;SDS011;37879;52.986;6.282;2023-03-14T01:26:25;12.85;;;4.53;;
51824;SDS011;37879;52.986;6.282;2023-03-14T01:28:54;9.18;;;3.15;;
51824;SDS011;37879;52.986;6.282;2023-03-14T01:31:21;14.98;;;4.82;;
51824;SDS011;37879;52.986;6.282;2023-03-14T01:33:46;11.30;;;3.10;;
51824;SDS011;37879;52.986;6.282;2023-03-14T01:36:12;15.63;;;3.45;;
51824;SDS011;37879;52.986;6.282;2023-03-14T01:38:38;17.85;;;3.65;;
51824;SDS011;37879;52.986;6.282;2023-03-14T01:41:05;10.25;;;2.92;;
51824;SDS011;37879;52.986;6.282;2023-03-14T01:43:32;13.43;;;3.83;;
51824;SDS011;37879;52.986;6.282;2023-03-14T01:51:28;13.88;;;3.92;;
51824;SDS011;37879;52.986;6.282;2023-03-14T01:54:07;9.55;;;2.78;;
51824;SDS011;37879;52.986;6.282;2023-03-14T01:56:41;16.42;;;3.85;;
51824;SDS011;37879;52.986;6.282;2023-03-14T01:59:10;9.23;;;2.15;;
51824;SDS011;37879;52.986;6.282;2023-03-14T02:01:36;9.60;;;2.28;;
51824;SDS011;37879;52.986;6.282;2023-03-14T02:04:06;10.70;;;2.70;;
51824;SDS011;37879;52.986;6.282;2023-03-14T02:06:50;15.65;;;4.03;;
51824;SDS011;37879;52.986;6.282;2023-03-14T02:09:26;8.95;;;2.25;;
51824;SDS011;37879;52.986;6.282;2023-03-14T02:11:51;9.27;;;2.70;;
51824;SDS011;37879;52.986;6.282;2023-03-14T02:14:22;8.15;;;2.35;;
51824;SDS011;37879;52.986;6.282;2023-03-14T02:16:54;11.13;;;2.75;;
51824;SDS011;37879;52.986;6.282;2023-03-14T02:19:22;10.65;;;2.70;;
51824;SDS011;37879;52.986;6.282;2023-03-14T02:21:58;9.32;;;2.40;;
51824;SDS011;37879;52.986;6.282;2023-03-14T02:24:43;9.85;;;2.03;;
51824;SDS011;37879;52.986;6.282;2023-03-14T02:27:23;7.85;;;2.55;;
51824;SDS011;37879;52.986;6.282;2023-03-14T02:29:51;10.27;;;2.63;;
51824;SDS011;37879;52.986;6.282;2023-03-14T02:32:20;6.95;;;1.95;;
51824;SDS011;37879;52.986;6.282;2023-03-14T02:34:54;10.02;;;2.70;;
51824;SDS011;37879;52.986;6.282;2023-03-14T02:37:28;6.78;;;2.33;;
51824;SDS011;37879;52.986;6.282;2023-03-14T02:40:03;10.70;;;3.10;;
51824;SDS011;37879;52.986;6.282;2023-03-14T02:42:29;8.40;;;2.35;;
51824;SDS011;37879;52.986;6.282;2023-03-14T02:47:33;7.53;;;2.42;;
51824;SDS011;37879;52.986;6.282;2023-03-14T02:50:03;7.07;;;2.38;;
51824;SDS011;37879;52.986;6.282;2023-03-14T02:52:33;8.57;;;2.92;;
51824;SDS011;37879;52.986;6.282;2023-03-14T02:54:58;10.52;;;2.97;;
51824;SDS011;37879;52.986;6.282;2023-03-14T02:57:24;8.55;;;2.00;;
51824;SDS011;37879;52.986;6.282;2023-03-14T02:59:50;7.70;;;2.40;;
51824;SDS011;37879;52.986;6.282;2023-03-14T03:02:15;10.18;;;2.47;;
51824;SDS011;37879;52.986;6.282;2023-03-14T03:04:41;5.43;;;1.80;;
51824;SDS011;37879;52.986;6.282;2023-03-14T03:07:07;5.78;;;2.28;;
51824;SDS011;37879;52.986;6.282;2023-03-14T03:09:33;10.70;;;3.00;;
51824;SDS011;37879;52.986;6.282;2023-03-14T03:11:58;12.70;;;3.50;;
51824;SDS011;37879;52.986;6.282;2023-03-14T03:14:24;8.57;;;2.70;;
51824;SDS011;37879;52.986;6.282;2023-03-14T03:16:50;8.23;;;3.00;;
51824;SDS011;37879;52.986;6.282;2023-03-14T03:19:15;11.27;;;2.95;;
51824;SDS011;37879;52.986;6.282;2023-03-14T03:21:42;8.85;;;3.38;;
51824;SDS011;37879;52.986;6.282;2023-03-14T03:24:08;12.60;;;3.47;;
51824;SDS011;37879;52.986;6.282;2023-03-14T03:26:34;12.63;;;3.60;;
51824;SDS011;37879;52.986;6.282;2023-03-14T03:29:00;12.82;;;3.78;;
51824;SDS011;37879;52.986;6.282;2023-03-14T03:31:26;13.63;;;3.97;;
51824;SDS011;37879;52.986;6.282;2023-03-14T03:33:52;26.25;;;6.45;;
51824;SDS011;37879;52.986;6.282;2023-03-14T03:36:21;15.07;;;3.33;;
51824;SDS011;37879;52.986;6.282;2023-03-14T03:38:48;17.48;;;4.40;;
51824;SDS011;37879;52.986;6.282;2023-03-14T03:41:14;12.55;;;4.13;;
51824;SDS011;37879;52.986;6.282;2023-03-14T03:43:39;15.18;;;4.32;;
51824;SDS011;37879;52.986;6.282;2023-03-14T03:46:06;15.45;;;4.25;;
51824;SDS011;37879;52.986;6.282;2023-03-14T03:48:32;11.60;;;4.45;;
51824;SDS011;37879;52.986;6.282;2023-03-14T03:50:58;13.27;;;4.97;;
51824;SDS011;37879;52.986;6.282;2023-03-14T03:53:24;12.70;;;4.25;;
51824;SDS011;37879;52.986;6.282;2023-03-14T03:55:49;14.73;;;5.30;;
51824;SDS011;37879;52.986;6.282;2023-03-14T03:58:15;16.92;;;4.60;;
51824;SDS011;37879;52.986;6.282;2023-03-14T04:00:41;13.82;;;4.80;;
51824;SDS011;37879;52.986;6.282;2023-03-14T04:03:06;17.52;;;5.38;;
51824;SDS011;37879;52.986;6.282;2023-03-14T04:05:32;13.00;;;4.93;;
51824;SDS011;37879;52.986;6.282;2023-03-14T04:07:59;17.33;;;6.32;;
51824;SDS011;37879;52.986;6.282;2023-03-14T04:10:25;10.60;;;4.72;;
51824;SDS011;37879;52.986;6.282;2023-03-14T04:12:50;11.90;;;5.10;;
51824;SDS011;37879;52.986;6.282;2023-03-14T04:15:17;11.95;;;5.53;;
51824;SDS011;37879;52.986;6.282;2023-03-14T04:17:43;14.68;;;5.57;;
51824;SDS011;37879;52.986;6.282;2023-03-14T04:20:09;14.68;;;5.72;;
51824;SDS011;37879;52.986;6.282;2023-03-14T04:22:38;11.20;;;5.82;;
51824;SDS011;37879;52.986;6.282;2023-03-14T04:25:04;9.52;;;5.00;;
51824;SDS011;37879;52.986;6.282;2023-03-14T04:27:30;12.93;;;5.50;;
51824;SDS011;37879;52.986;6.282;2023-03-14T04:29:56;16.85;;;6.70;;
51824;SDS011;37879;52.986;6.282;2023-03-14T04:32:22;14.52;;;5.65;;
51824;SDS011;37879;52.986;6.282;2023-03-14T04:34:48;13.90;;;5.75;;
51824;SDS011;37879;52.986;6.282;2023-03-14T04:37:13;15.82;;;5.45;;
51824;SDS011;37879;52.986;6.282;2023-03-14T04:39:39;12.13;;;5.80;;
51824;SDS011;37879;52.986;6.282;2023-03-14T04:42:05;10.10;;;4.47;;
51824;SDS011;37879;52.986;6.282;2023-03-14T04:44:30;10.23;;;4.25;;
51824;SDS011;37879;52.986;6.282;2023-03-14T04:46:56;11.27;;;4.65;;
51824;SDS011;37879;52.986;6.282;2023-03-14T04:49:22;13.18;;;3.90;;
51824;SDS011;37879;52.986;6.282;2023-03-14T04:51:48;10.80;;;4.55;;
51824;SDS011;37879;52.986;6.282;2023-03-14T04:54:15;10.10;;;4.38;;
51824;SDS011;37879;52.986;6.282;2023-03-14T04:56:42;8.82;;;3.63;;
51824;SDS011;37879;52.986;6.282;2023-03-14T04:59:08;12.93;;;4.25;;
51824;SDS011;37879;52.986;6.282;2023-03-14T05:01:34;9.48;;;3.58;;
51824;SDS011;37879;52.986;6.282;2023-03-14T05:04:00;11.30;;;4.35;;
51824;SDS011;37879;52.986;6.282;2023-03-14T05:06:25;12.02;;;3.75;;
51824;SDS011;37879;52.986;6.282;2023-03-14T05:08:51;12.38;;;4.63;;
51824;SDS011;37879;52.986;6.282;2023-03-14T05:11:17;10.10;;;4.03;;
51824;SDS011;37879;52.986;6.282;2023-03-14T05:13:43;9.25;;;3.92;;
51824;SDS011;37879;52.986;6.282;2023-03-14T05:16:09;9.70;;;4.45;;
51824;SDS011;37879;52.986;6.282;2023-03-14T05:18:36;10.18;;;4.57;;
51824;SDS011;37879;52.986;6.282;2023-03-14T05:21:02;9.68;;;4.85;;
51824;SDS011;37879;52.986;6.282;2023-03-14T05:23:28;12.15;;;4.00;;
51824;SDS011;37879;52.986;6.282;2023-03-14T05:25:54;14.30;;;5.47;;
51824;SDS011;37879;52.986;6.282;2023-03-14T05:28:20;11.25;;;3.85;;
51824;SDS011;37879;52.986;6.282;2023-03-14T05:30:46;13.48;;;5.32;;
51824;SDS011;37879;52.986;6.282;2023-03-14T05:33:12;11.45;;;4.45;;
51824;SDS011;37879;52.986;6.282;2023-03-14T05:35:37;11.02;;;4.22;;
51824;SDS011;37879;52.986;6.282;2023-03-14T05:38:03;12.95;;;4.50;;
51824;SDS011;37879;52.986;6.282;2023-03-14T05:40:29;13.52;;;4.40;;
51824;SDS011;37879;52.986;6.282;2023-03-14T05:42:54;11.45;;;4.47;;
51824;SDS011;37879;52.986;6.282;2023-03-14T05:45:20;9.20;;;3.92;;
51824;SDS011;37879;52.986;6.282;2023-03-14T05:47:46;6.93;;;3.80;;
51824;SDS011;37879;52.986;6.282;2023-03-14T05:50:11;9.20;;;4.13;;
51824;SDS011;37879;52.986;6.282;2023-03-14T05:52:37;11.32;;;4.78;;
51824;SDS011;37879;52.986;6.282;2023-03-14T05:55:03;7.80;;;3.60;;
51824;SDS011;37879;52.986;6.282;2023-03-14T05:57:29;8.32;;;3.33;;
51824;SDS011;37879;52.986;6.282;2023-03-14T05:59:55;10.55;;;4.15;;
51824;SDS011;37879;52.986;6.282;2023-03-14T06:02:20;7.43;;;3.35;;
51824;SDS011;37879;52.986;6.282;2023-03-14T06:04:46;8.57;;;3.50;;
51824;SDS011;37879;52.986;6.282;2023-03-14T06:07:11;10.55;;;3.25;;
51824;SDS011;37879;52.986;6.282;2023-03-14T06:09:37;10.60;;;4.00;;
51824;SDS011;37879;52.986;6.282;2023-03-14T06:12:04;8.30;;;3.75;;
51824;SDS011;37879;52.986;6.282;2023-03-14T06:14:30;11.90;;;4.13;;
51824;SDS011;37879;52.986;6.282;2023-03-14T06:16:56;9.68;;;3.90;;
51824;SDS011;37879;52.986;6.282;2023-03-14T06:19:24;9.27;;;3.92;;
51824;SDS011;37879;52.986;6.282;2023-03-14T06:21:50;8.52;;;3.53;;
51824;SDS011;37879;52.986;6.282;2023-03-14T06:24:16;11.30;;;4.25;;
51824;SDS011;37879;52.986;6.282;2023-03-14T06:26:42;11.85;;;4.53;;
51824;SDS011;37879;52.986;6.282;2023-03-14T06:29:07;12.27;;;4.88;;
51824;SDS011;37879;52.986;6.282;2023-03-14T06:31:33;11.85;;;4.28;;
51824;SDS011;37879;52.986;6.282;2023-03-14T06:33:59;11.50;;;3.88;;
51824;SDS011;37879;52.986;6.282;2023-03-14T06:36:25;13.10;;;3.95;;
51824;SDS011;37879;52.986;6.282;2023-03-14T06:38:51;9.00;;;3.42;;
51824;SDS011;37879;52.986;6.282;2023-03-14T06:41:16;6.07;;;3.08;;
51824;SDS011;37879;52.986;6.282;2023-03-14T06:43:42;8.93;;;3.75;;
51824;SDS011;37879;52.986;6.282;2023-03-14T06:46:08;7.15;;;2.50;;
51824;SDS011;37879;52.986;6.282;2023-03-14T06:48:33;6.70;;;2.40;;
51824;SDS011;37879;52.986;6.282;2023-03-14T06:50:59;1.77;;;0.50;;
51824;SDS011;37879;52.986;6.282;2023-03-14T06:53:24;2.97;;;0.55;;
51824;SDS011;37879;52.986;6.282;2023-03-14T06:55:50;0.95;;;0.30;;
51824;SDS011;37879;52.986;6.282;2023-03-14T06:58:16;1.25;;;0.30;;
51824;SDS011;37879;52.986;6.282;2023-03-14T07:00:42;6.28;;;0.85;;
51824;SDS011;37879;52.986;6.282;2023-03-14T07:03:07;5.32;;;0.98;;
51824;SDS011;37879;52.986;6.282;2023-03-14T07:05:35;3.65;;;1.08;;
51824;SDS011;37879;52.986;6.282;2023-03-14T07:08:00;5.78;;;1.10;;
51824;SDS011;37879;52.986;6.282;2023-03-14T07:10:26;2.92;;;0.60;;
51824;SDS011;37879;52.986;6.282;2023-03-14T07:12:52;5.30;;;0.77;;
51824;SDS011;37879;52.986;6.282;2023-03-14T07:15:18;9.82;;;1.45;;
51824;SDS011;37879;52.986;6.282;2023-03-14T07:17:45;6.65;;;1.70;;
51824;SDS011;37879;52.986;6.282;2023-03-14T07:20:13;4.15;;;0.30;;
51824;SDS011;37879;52.986;6.282;2023-03-14T07:22:38;7.22;;;0.88;;
51824;SDS011;37879;52.986;6.282;2023-03-14T07:25:04;3.85;;;1.05;;
51824;SDS011;37879;52.986;6.282;2023-03-14T07:27:30;4.57;;;0.60;;
51824;SDS011;37879;52.986;6.282;2023-03-14T07:29:56;2.25;;;0.50;;
51824;SDS011;37879;52.986;6.282;2023-03-14T07:32:22;4.85;;;0.22;;
51824;SDS011;37879;52.986;6.282;2023-03-14T07:34:47;1.02;;;0.28;;
51824;SDS011;37879;52.986;6.282;2023-03-14T07:37:13;4.20;;;0.35;;
51824;SDS011;37879;52.986;6.282;2023-03-14T07:39:39;3.72;;;0.57;;
51824;SDS011;37879;52.986;6.282;2023-03-14T07:42:04;3.35;;;0.60;;
51824;SDS011;37879;52.986;6.282;2023-03-14T07:44:30;1.50;;;0.30;;
51824;SDS011;37879;52.986;6.282;2023-03-14T07:46:56;4.20;;;0.60;;
51824;SDS011;37879;52.986;6.282;2023-03-14T07:49:22;1.17;;;0.10;;
51824;SDS011;37879;52.986;6.282;2023-03-14T07:51:48;1.52;;;0.68;;
51824;SDS011;37879;52.986;6.282;2023-03-14T07:54:14;1.48;;;0.60;;
51824;SDS011;37879;52.986;6.282;2023-03-14T07:56:39;3.75;;;0.80;;
51824;SDS011;37879;52.986;6.282;2023-03-14T07:59:05;2.53;;;0.38;;
51824;SDS011;37879;52.986;6.282;2023-03-14T08:01:31;2.28;;;0.30;;
51824;SDS011;37879;52.986;6.282;2023-03-14T08:03:56;3.13;;;0.65;;
51824;SDS011;37879;52.986;6.282;2023-03-14T08:06:22;7.35;;;1.20;;
51824;SDS011;37879;52.986;6.282;2023-03-14T08:08:48;2.78;;;0.95;;
51824;SDS011;37879;52.986;6.282;2023-03-14T08:11:13;13.25;;;2.85;;
51824;SDS011;37879;52.986;6.282;2023-03-14T08:13:39;1.77;;;0.40;;
51824;SDS011;37879;52.986;6.282;2023-03-14T08:16:05;2.53;;;0.40;;
51824;SDS011;37879;52.986;6.282;2023-03-14T08:18:31;4.80;;;0.75;;
51824;SDS011;37879;52.986;6.282;2023-03-14T08:20:57;1.02;;;0.32;;
51824;SDS011;37879;52.986;6.282;2023-03-14T08:23:23;0.20;;;0.10;;
51824;SDS011;37879;52.986;6.282;2023-03-14T08:25:50;2.53;;;0.50;;
51824;SDS011;37879;52.986;6.282;2023-03-14T08:28:16;2.90;;;0.45;;
51824;SDS011;37879;52.986;6.282;2023-03-14T08:30:42;2.53;;;0.70;;
51824;SDS011;37879;52.986;6.282;2023-03-14T08:33:07;1.30;;;0.20;;
51824;SDS011;37879;52.986;6.282;2023-03-14T08:35:33;3.00;;;0.60;;
51824;SDS011;37879;52.986;6.282;2023-03-14T08:37:59;2.85;;;0.50;;
51824;SDS011;37879;52.986;6.282;2023-03-14T08:40:24;3.42;;;0.52;;
51824;SDS011;37879;52.986;6.282;2023-03-14T08:42:50;5.63;;;0.73;;
51824;SDS011;37879;52.986;6.282;2023-03-14T08:45:16;3.08;;;0.50;;
51824;SDS011;37879;52.986;6.282;2023-03-14T08:47:42;4.05;;;1.00;;
51824;SDS011;37879;52.986;6.282;2023-03-14T08:50:09;4.18;;;0.88;;
51824;SDS011;37879;52.986;6.282;2023-03-14T08:52:36;5.18;;;0.55;;
51824;SDS011;37879;52.986;6.282;2023-03-14T08:55:05;9.15;;;2.38;;
51824;SDS011;37879;52.986;6.282;2023-03-14T08:57:31;5.95;;;1.10;;
51824;SDS011;37879;52.986;6.282;2023-03-14T08:59:57;4.93;;;0.80;;
51824;SDS011;37879;52.986;6.282;2023-03-14T09:02:24;5.10;;;1.20;;
51824;SDS011;37879;52.986;6.282;2023-03-14T09:04:51;4.78;;;1.17;;
51824;SDS011;37879;52.986;6.282;2023-03-14T09:07:17;5.93;;;1.00;;
51824;SDS011;37879;52.986;6.282;2023-03-14T09:09:43;9.75;;;2.13;;
51824;SDS011;37879;52.986;6.282;2023-03-14T09:12:10;5.40;;;1.77;;
51824;SDS011;37879;52.986;6.282;2023-03-14T09:14:35;6.85;;;1.80;;
51824;SDS011;37879;52.986;6.282;2023-03-14T09:17:02;9.45;;;1.30;;
51824;SDS011;37879;52.986;6.282;2023-03-14T09:19:28;6.82;;;2.10;;
51824;SDS011;37879;52.986;6.282;2023-03-14T09:21:54;9.10;;;2.15;;
51824;SDS011;37879;52.986;6.282;2023-03-14T09:24:20;8.70;;;2.05;;
51824;SDS011;37879;52.986;6.282;2023-03-14T09:26:46;10.90;;;2.35;;
51824;SDS011;37879;52.986;6.282;2023-03-14T09:29:11;4.88;;;0.80;;
51824;SDS011;37879;52.986;6.282;2023-03-14T09:31:37;9.45;;;1.65;;
51824;SDS011;37879;52.986;6.282;2023-03-14T09:34:03;9.82;;;2.15;;
51824;SDS011;37879;52.986;6.282;2023-03-14T09:36:29;11.27;;;3.25;;
51824;SDS011;37879;52.986;6.282;2023-03-14T09:38:55;6.93;;;1.75;;
51824;SDS011;37879;52.986;6.282;2023-03-14T09:41:21;12.88;;;2.45;;
51824;SDS011;37879;52.986;6.282;2023-03-14T09:43:49;10.52;;;2.67;;
51824;SDS011;37879;52.986;6.282;2023-03-14T09:46:28;8.75;;;1.90;;
51824;SDS011;37879;52.986;6.282;2023-03-14T09:48:54;15.88;;;3.85;;
51824;SDS011;37879;52.986;6.282;2023-03-14T09:51:20;9.43;;;1.98;;
51824;SDS011;37879;52.986;6.282;2023-03-14T09:53:49;11.88;;;2.97;;
51824;SDS011;37879;52.986;6.282;2023-03-14T09:56:20;9.60;;;3.00;;
51824;SDS011;37879;52.986;6.282;2023-03-14T09:58:56;17.98;;;2.75;;
51824;SDS011;37879;52.986;6.282;2023-03-14T10:01:29;11.70;;;2.42;;
51824;SDS011;37879;52.986;6.282;2023-03-14T10:03:57;8.80;;;1.70;;
51824;SDS011;37879;52.986;6.282;2023-03-14T10:06:29;15.52;;;2.90;;
51824;SDS011;37879;52.986;6.282;2023-03-14T10:08:56;11.57;;;2.55;;
51824;SDS011;37879;52.986;6.282;2023-03-14T10:11:23;13.68;;;3.53;;
51824;SDS011;37879;52.986;6.282;2023-03-14T10:16:43;5.78;;;1.83;;
51824;SDS011;37879;52.986;6.282;2023-03-14T10:19:11;15.07;;;2.45;;
51824;SDS011;37879;52.986;6.282;2023-03-14T10:21:44;13.57;;;2.97;;
51824;SDS011;37879;52.986;6.282;2023-03-14T10:27:08;10.07;;;1.92;;
51824;SDS011;37879;52.986;6.282;2023-03-14T10:29:51;11.15;;;1.45;;
51824;SDS011;37879;52.986;6.282;2023-03-14T10:32:27;11.27;;;2.72;;
51824;SDS011;37879;52.986;6.282;2023-03-14T10:37:47;4.70;;;1.77;;
51824;SDS011;37879;52.986;6.282;2023-03-14T10:40:15;13.20;;;2.35;;
51824;SDS011;37879;52.986;6.282;2023-03-14T10:42:43;12.20;;;2.15;;
51824;SDS011;37879;52.986;6.282;2023-03-14T10:47:52;9.93;;;2.35;;
51824;SDS011;37879;52.986;6.282;2023-03-14T10:50:23;7.78;;;1.75;;
51824;SDS011;37879;52.986;6.282;2023-03-14T10:52:49;8.65;;;1.38;;
51824;SDS011;37879;52.986;6.282;2023-03-14T10:55:18;8.90;;;1.65;;
51824;SDS011;37879;52.986;6.282;2023-03-14T10:57:44;7.38;;;1.55;;
51824;SDS011;37879;52.986;6.282;2023-03-14T11:00:16;11.95;;;2.08;;
51824;SDS011;37879;52.986;6.282;2023-03-14T11:08:29;10.02;;;1.67;;
51824;SDS011;37879;52.986;6.282;2023-03-14T11:16:22;8.00;;;1.50;;
51824;SDS011;37879;52.986;6.282;2023-03-14T11:19:12;7.03;;;1.63;;
51824;SDS011;37879;52.986;6.282;2023-03-14T11:27:26;6.03;;;1.50;;
51824;SDS011;37879;52.986;6.282;2023-03-14T11:29:55;11.55;;;1.48;;
51824;SDS011;37879;52.986;6.282;2023-03-14T11:35:07;5.85;;;1.30;;
51824;SDS011;37879;52.986;6.282;2023-03-14T11:37:54;5.05;;;0.95;;
51824;SDS011;37879;52.986;6.282;2023-03-14T11:40:28;10.50;;;1.85;;
51824;SDS011;37879;52.986;6.282;2023-03-14T11:43:08;3.80;;;1.33;;
51824;SDS011;37879;52.986;6.282;2023-03-14T11:46:07;4.65;;;1.20;;
51824;SDS011;37879;52.986;6.282;2023-03-14T11:48:59;4.78;;;1.38;;
51824;SDS011;37879;52.986;6.282;2023-03-14T11:51:34;3.28;;;0.60;;
51824;SDS011;37879;52.986;6.282;2023-03-14T11:54:16;5.07;;;0.80;;
51824;SDS011;37879;52.986;6.282;2023-03-14T11:57:03;1.40;;;0.40;;
51824;SDS011;37879;52.986;6.282;2023-03-14T12:10:36;1.73;;;0.30;;
51824;SDS011;37879;52.986;6.282;2023-03-14T12:13:09;10.02;;;1.10;;
51824;SDS011;37879;52.986;6.282;2023-03-14T12:15:41;6.25;;;0.90;;
51824;SDS011;37879;52.986;6.282;2023-03-14T12:18:31;5.10;;;0.90;;
51824;SDS011;37879;52.986;6.282;2023-03-14T12:21:04;6.93;;;1.55;;
51824;SDS011;37879;52.986;6.282;2023-03-14T12:23:36;4.18;;;0.77;;
51824;SDS011;37879;52.986;6.282;2023-03-14T12:28:38;6.05;;;1.25;;
51824;SDS011;37879;52.986;6.282;2023-03-14T12:36:55;9.10;;;2.72;;
51824;SDS011;37879;52.986;6.282;2023-03-14T12:42:13;1.90;;;0.47;;
51824;SDS011;37879;52.986;6.282;2023-03-14T12:44:47;8.98;;;2.45;;
51824;SDS011;37879;52.986;6.282;2023-03-14T12:49:46;1.20;;;0.50;;
51824;SDS011;37879;52.986;6.282;2023-03-14T12:52:21;4.03;;;0.80;;
51824;SDS011;37879;52.986;6.282;2023-03-14T12:54:58;3.88;;;0.75;;
51824;SDS011;37879;52.986;6.282;2023-03-14T12:57:45;4.53;;;0.82;;
51824;SDS011;37879;52.986;6.282;2023-03-14T13:00:32;6.07;;;1.98;;
51824;SDS011;37879;52.986;6.282;2023-03-14T13:03:00;7.22;;;1.67;;
51824;SDS011;37879;52.986;6.282;2023-03-14T13:05:40;6.05;;;1.63;;
51824;SDS011;37879;52.986;6.282;2023-03-14T13:08:32;3.92;;;0.52;;
51824;SDS011;37879;52.986;6.282;2023-03-14T13:11:03;2.10;;;0.52;;
51824;SDS011;37879;52.986;6.282;2023-03-14T13:13:35;9.10;;;0.95;;
51824;SDS011;37879;52.986;6.282;2023-03-14T13:16:05;5.32;;;1.08;;
51824;SDS011;37879;52.986;6.282;2023-03-14T13:23:54;4.05;;;1.02;;
51824;SDS011;37879;52.986;6.282;2023-03-14T13:26:25;8.90;;;1.63;;
51824;SDS011;37879;52.986;6.282;2023-03-14T13:29:08;5.30;;;1.10;;
51824;SDS011;37879;52.986;6.282;2023-03-14T13:31:49;7.90;;;0.90;;
51824;SDS011;37879;52.986;6.282;2023-03-14T13:34:16;5.15;;;1.00;;
51824;SDS011;37879;52.986;6.282;2023-03-14T13:36:42;5.68;;;1.08;;
51824;SDS011;37879;52.986;6.282;2023-03-14T13:39:12;7.35;;;1.13;;
51824;SDS011;37879;52.986;6.282;2023-03-14T13:41:41;4.85;;;1.17;;
51824;SDS011;37879;52.986;6.282;2023-03-14T13:44:08;4.82;;;1.17;;
51824;SDS011;37879;52.986;6.282;2023-03-14T13:46:52;5.07;;;1.00;;
51824;SDS011;37879;52.986;6.282;2023-03-14T13:49:26;1.63;;;0.57;;
51824;SDS011;37879;52.986;6.282;2023-03-14T13:51:54;5.07;;;0.80;;
51824;SDS011;37879;52.986;6.282;2023-03-14T13:54:20;3.90;;;1.13;;
51824;SDS011;37879;52.986;6.282;2023-03-14T13:56:47;7.10;;;2.33;;
51824;SDS011;37879;52.986;6.282;2023-03-14T14:01:53;4.22;;;1.08;;
51824;SDS011;37879;52.986;6.282;2023-03-14T14:04:21;4.80;;;1.70;;
51824;SDS011;37879;52.986;6.282;2023-03-14T14:06:49;7.40;;;2.03;;
51824;SDS011;37879;52.986;6.282;2023-03-14T14:09:16;6.70;;;2.20;;
51824;SDS011;37879;52.986;6.282;2023-03-14T14:11:50;7.20;;;1.17;;
51824;SDS011;37879;52.986;6.282;2023-03-14T14:16:45;11.63;;;3.53;;
51824;SDS011;37879;52.986;6.282;2023-03-14T14:19:13;10.82;;;3.72;;
51824;SDS011;37879;52.986;6.282;2023-03-14T14:21:40;9.52;;;2.60;;
51824;SDS011;37879;52.986;6.282;2023-03-14T14:24:08;5.80;;;1.27;;
51824;SDS011;37879;52.986;6.282;2023-03-14T14:26:50;5.70;;;1.50;;
51824;SDS011;37879;52.986;6.282;2023-03-14T14:29:23;4.68;;;1.13;;
51824;SDS011;37879;52.986;6.282;2023-03-14T14:34:26;6.47;;;1.27;;
51824;SDS011;37879;52.986;6.282;2023-03-14T14:36:52;3.35;;;0.90;;
51824;SDS011;37879;52.986;6.282;2023-03-14T14:39:23;4.60;;;1.15;;
51824;SDS011;37879;52.986;6.282;2023-03-14T14:41:51;5.88;;;1.08;;
51824;SDS011;37879;52.986;6.282;2023-03-14T14:44:28;5.70;;;0.98;;
51824;SDS011;37879;52.986;6.282;2023-03-14T14:46:57;2.70;;;1.02;;
51824;SDS011;37879;52.986;6.282;2023-03-14T14:49:28;9.82;;;0.95;;
51824;SDS011;37879;52.986;6.282;2023-03-14T14:52:00;4.25;;;0.80;;
51824;SDS011;37879;52.986;6.282;2023-03-14T14:54:37;3.72;;;0.95;;
51824;SDS011;37879;52.986;6.282;2023-03-14T14:57:05;4.93;;;1.00;;
51824;SDS011;37879;52.986;6.282;2023-03-14T14:59:44;3.00;;;0.80;;
51824;SDS011;37879;52.986;6.282;2023-03-14T15:02:19;3.83;;;1.23;;
51824;SDS011;37879;52.986;6.282;2023-03-14T15:07:47;4.75;;;1.73;;
51824;SDS011;37879;52.986;6.282;2023-03-14T15:10:15;2.42;;;0.63;;
51824;SDS011;37879;52.986;6.282;2023-03-14T15:12:43;3.85;;;1.15;;
51824;SDS011;37879;52.986;6.282;2023-03-14T15:15:09;2.60;;;0.47;;
51824;SDS011;37879;52.986;6.282;2023-03-14T15:17:35;6.88;;;1.10;;
51824;SDS011;37879;52.986;6.282;2023-03-14T15:20:02;5.80;;;1.10;;
51824;SDS011;37879;52.986;6.282;2023-03-14T15:22:31;7.20;;;1.10;;
51824;SDS011;37879;52.986;6.282;2023-03-14T15:24:57;4.82;;;1.85;;
51824;SDS011;37879;52.986;6.282;2023-03-14T15:27:23;5.40;;;1.23;;
51824;SDS011;37879;52.986;6.282;2023-03-14T15:29:49;6.15;;;1.05;;
51824;SDS011;37879;52.986;6.282;2023-03-14T15:32:15;7.68;;;1.25;;
51824;SDS011;37879;52.986;6.282;2023-03-14T15:34:43;5.93;;;1.35;;
51824;SDS011;37879;52.986;6.282;2023-03-14T15:37:10;8.02;;;1.23;;
51824;SDS011;37879;52.986;6.282;2023-03-14T15:39:38;5.13;;;1.08;;
51824;SDS011;37879;52.986;6.282;2023-03-14T15:42:04;6.07;;;1.45;;
51824;SDS011;37879;52.986;6.282;2023-03-14T15:44:30;6.35;;;1.27;;
51824;SDS011;37879;52.986;6.282;2023-03-14T15:46:56;5.55;;;1.48;;
51824;SDS011;37879;52.986;6.282;2023-03-14T15:49:21;7.30;;;2.45;;
51824;SDS011;37879;52.986;6.282;2023-03-14T15:51:47;4.68;;;1.35;;
51824;SDS011;37879;52.986;6.282;2023-03-14T15:54:13;3.75;;;0.82;;
51824;SDS011;37879;52.986;6.282;2023-03-14T15:56:39;3.35;;;1.00;;
51824;SDS011;37879;52.986;6.282;2023-03-14T15:59:05;8.18;;;1.35;;
51824;SDS011;37879;52.986;6.282;2023-03-14T16:01:30;4.70;;;1.48;;
51824;SDS011;37879;52.986;6.282;2023-03-14T16:03:56;5.10;;;0.68;;
51824;SDS011;37879;52.986;6.282;2023-03-14T16:06:22;3.17;;;1.00;;
51824;SDS011;37879;52.986;6.282;2023-03-14T16:08:47;6.10;;;1.05;;